Texel International Airport

EHTX · North Holland, The Netherlands

METAR history EHTX · Texel International Airport

Below you see METARs of the last few days. Select a year to browse through older METARs, from the year 2007 onwards.

March 31, 2023

Time Code Weather Temp. Visibility Ceiling Wind METAR/SPECI
13:33
M
12 °C 10 km+ 1,500 ft 200° 200° 19 kt METAR EHKD 311133Z AUTO 20019KT 170V230 9999 BKN015 BKN019 BKN023 12/09 Q0990 WHT TEMPO FEW006 BKN015 SCT015CB
13:29
V
12 °C 10 km+ 3,300 ft 210° 210° 18 kt METAR EHKD 311129Z AUTO 21018KT 9999 FEW015 SCT019 BKN033 12/09 Q0990 WHT TEMPO FEW006 BKN015 SCT015CB
13:25
V
12 °C 10 km+ 5,000 ft 210° 210° 18 kt METAR EHKD 311125Z AUTO 21018KT 180V250 9999 FEW015 SCT035 BKN050 12/09 Q0990 BLU TEMPO FEW006 BKN015 SCT015CB
13:16
V
12 °C 10 km+ 3,800 ft 210° 210° 18 kt METAR EHKD 311116Z AUTO 21018KT 180V250 9999 FEW015 SCT026 BKN038 12/10 Q0990 BLU TEMPO FEW006 BKN015 SCT015CB
12:55
M
12 °C 10 km+ 1,500 ft 200° 200° 21 kt METAR EHKD 311055Z AUTO 20021KT 170V230 9999 FEW012 BKN015CB BKN023 12/10 Q0991 WHT TEMPO FEW006 BKN015 SCT015CB
12:43
M
12 °C 10 km+ 2,900 ft 200° 200° 19 kt METAR EHKD 311043Z AUTO 20019KT 170V230 9999 FEW014 FEW015CB SCT017 BKN029 12/09 Q0991 WHT TEMPO FEW006 BKN015 SCT015CB
12:25
M
12 °C 10 km+ 2,300 ft 200° 200° 22 kt METAR EHKD 311025Z AUTO 20022KT 9999 FEW009 SCT016 BKN023 12/09 Q0991 WHT TEMPO FEW006 BKN015 SCT015CB
12:17
V
12 °C 10 km+ 4,000 ft 210° 210° 20 - 31 kt METAR EHKD 311017Z AUTO 21020G31KT 180V240 9999 FEW016 SCT019 BKN040 12/09 Q0991 WHT TEMPO FEW006 BKN015 SCT015CB
11:55
V
13 °C 10 km+ 4,200 ft 210° 210° 18 kt METAR EHKD 310955Z AUTO 21018KT 170V240 9999 FEW018 SCT037 BKN042 13/09 Q0991 BLU TEMPO FEW006 BKN015 SCT015CB
11:36
V
12 °C 10 km+ 3,600 ft 200° 200° 19 kt METAR EHKD 310936Z AUTO 20019KT 170V230 9999 FEW016 SCT027 BKN036 12/09 Q0991 BLU TEMPO FEW006 BKN015 SCT015CB
11:33
M
12 °C 10 km+ 2,500 ft 200° 200° 18 kt METAR EHKD 310933Z AUTO 20018KT 170V230 9999 FEW016 BKN025 BKN031 12/09 Q0991 BLU TEMPO 4000 SHRA FEW006 SCT010 BKN015 SCT015CB
11:25
M
12 °C 10 km+ 2,300 ft 200° 200° 17 kt METAR EHKD 310925Z AUTO 20017KT 9999 SCT015 BKN023 BKN028 12/10 Q0991 WHT TEMPO 4000 SHRA FEW006 SCT010 BKN015 SCT015CB
11:18
M
12 °C 10 km+ 3,000 ft 200° 200° 17 kt METAR EHKD 310918Z AUTO 20017KT 9999 FEW013 SCT026 BKN030 12/09 Q0991 BLU TEMPO 4000 SHRA FEW006 SCT010 BKN015 SCT015CB
11:13
M
12 °C 10 km+ 1,500 ft 200° 200° 16 kt METAR EHKD 310913Z AUTO 20016KT 160V220 9999 FEW013 BKN015 BKN026 12/10 Q0991 WHT TEMPO 4000 SHRA FEW006 SCT010 BKN015 SCT015CB
11:09
M
12 °C 10 km+ 1,700 ft 200° 200° 17 kt METAR EHKD 310909Z AUTO 20017KT 160V220 9999 FEW012 SCT014 BKN017 12/10 Q0991 GRN TEMPO 4000 SHRA FEW006 SCT010 BKN015 SCT015CB
10:55
M
11 °C 10 km+ 1,500 ft 190° 190° 18 kt METAR EHKD 310855Z AUTO 19018KT 9999 FEW013 BKN015CB OVC018 11/09 Q0991 WHT TEMPO 4000 SHRA FEW006 SCT010 BKN015 SCT015CB
10:25
M
11 °C 10 km+ 1,400 ft 190° 190° 14 kt METAR EHKD 310825Z AUTO 19014KT 160V220 9999 FEW009 SCT012 BKN014 FEW015CB 11/10 Q0992 REDZ GRN TEMPO 4000 SHRA FEW006 SCT010 BKN015 SCT015CB
10:18
M
11 °C 10 km+ 2,000 ft 190° 190° 13 kt METAR EHKD 310818Z AUTO 19013KT 9999 -DZRA FEW009 SCT014 SCT015CB BKN020 11/10 Q0992 GRN TEMPO 4000 SHRA FEW006 SCT010 BKN015 SCT015CB
10:09
M
10 °C 7 km 1,900 ft 190° 190° 13 kt METAR EHKD 310809Z AUTO 19013KT 170V230 7000 -SHRA FEW010 SCT015CB BKN019 10/09 Q0992 WHT TEMPO 4000 SHRA FEW006 SCT010 BKN015 SCT015CB
10:05
M
10 °C 5 km 2,200 ft 190° 190° 14 kt METAR EHKD 310805Z AUTO 19014KT 5000 -RA FEW010 FEW015CB SCT018 BKN022 10/09 Q0992 WHT TEMPO 4000 SHRA FEW006 SCT010 BKN015 SCT015CB
10:01
M
10 °C 5 km 2,800 ft 190° 190° 14 kt METAR EHKD 310801Z AUTO 19014KT 160V220 5000 +DZRA FEW009 FEW015CB SCT021 BKN028 10/09 Q0992 WHT TEMPO 4000 SHRA FEW006 SCT010 BKN015 SCT015CB
09:55
M
10 °C 10 km+ 1,000 ft 190° 190° 12 kt METAR EHKD 310755Z AUTO 19012KT 160V220 9999 -RADZ FEW008 BKN010 BKN013 FEW015CB 10/09 Q0992 GRN TEMPO 4000 SHRA FEW006 SCT010 BKN015 SCT015CB
09:44
M
10 °C 10 km+ 1,200 ft 190° 190° 11 kt SPECI EHKD 310744Z AUTO 19011KT 9999 -RADZ FEW007 SCT010 BKN012 FEW015CB 10/09 Q0992 GRN TEMPO 4000 SHRA FEW006 BKN015 SCT015CB
09:31
I
10 °C 8 km 900 ft 180° 180° 11 kt METAR EHKD 310731Z AUTO 18011KT 8000 -RA FEW005 SCT007 BKN009 10/09 Q0992 GRN TEMPO 4000 SHRA FEW006 BKN015 SCT015CB
09:25
I
10 °C 9 km 800 ft 180° 180° 9 kt METAR EHKD 310725Z AUTO 18009KT 9000 -DZ FEW005 SCT006 BKN008 10/09 Q0992 REDZ YLO TEMPO 4000 SHRA FEW006 BKN015 SCT015CB
09:17
I
10 °C 7 km 900 ft 180° 180° 9 kt METAR EHKD 310717Z AUTO 18009KT 7000 -RA FEW006 SCT007 BKN009 10/09 Q0992 GRN TEMPO 4000 SHRA FEW006 BKN015 SCT015CB
09:03
M
10 °C 10 km+ 1,200 ft 170° 170° 10 kt METAR EHKD 310703Z AUTO 17010KT 140V200 9999 DZ FEW006 SCT009 BKN012 10/09 Q0992 GRN TEMPO 4000 SHRA FEW006 BKN015 SCT015CB
08:57
M
10 °C 10 km+ 1,500 ft 170° 170° 11 kt METAR EHKD 310657Z AUTO 17011KT 9999 -RA FEW008 SCT011 BKN015 10/09 Q0992 GRN TEMPO FEW006 BKN015 SCT015CB
08:55
M
10 °C 10 km+ 1,600 ft 160° 160° 11 kt METAR EHKD 310655Z AUTO 16011KT 9999 FEW008 SCT014 OVC016 10/09 Q0992 GRN TEMPO FEW006 BKN015 SCT015CB
08:47
M
10 °C 10 km+ 1,500 ft 160° 160° 11 kt SPECI EHKD 310647Z AUTO 16011KT 120V190 9999 FEW011 BKN015 OVC018 10/09 Q0992 WHT TEMPO FEW006 BKN015 SCT015CB
08:43
M
10 °C 10 km+ 1,600 ft 160° 160° 11 kt METAR EHKD 310643Z AUTO 16011KT 120V190 9999 FEW010 SCT014 OVC016 10/09 Q0992 GRN TEMPO FEW006 BKN015 SCT015CB
08:41
M
10 °C 10 km+ 1,600 ft 150° 150° 11 kt METAR EHKD 310641Z AUTO 15011KT 9999 FEW004 FEW015CB OVC016 10/09 Q0992 WHT TEMPO FEW004 SCT007 BKN015 SCT015CB
08:31
I
10 °C 9 km 800 ft 160° 160° 11 kt METAR EHKD 310631Z AUTO 16011KT 9000 BR FEW005 SCT007 BKN008 FEW015CB 10/09 Q0993 GRN TEMPO FEW004 SCT007 BKN015 SCT015CB
08:25
I
10 °C 10 km+ 800 ft 160° 160° 11 kt METAR EHKD 310625Z AUTO 16011KT 120V210 9999 DZ FEW004 SCT006 BKN008 FEW015CB 10/09 Q0993 YLO TEMPO FEW004 SCT007 BKN015 SCT015CB
08:19
M
10 °C 5 km 1,000 ft 160° 160° 10 kt METAR EHKD 310619Z AUTO 16010KT 120V210 5000 DZ FEW005 SCT006 BKN010 10/09 Q0993 YLO TEMPO FEW004 SCT007 BKN015 SCT015CB
08:01
M
10 °C 10 km+ 1,100 ft 150° 150° 10 kt METAR EHKD 310601Z AUTO 15010KT 9999 FEW003 BKN011 OVC014 10/09 Q0993 GRN TEMPO FEW004 SCT007 BKN015 SCT015CB
07:55
I
10 °C 10 km+ 500 ft 150° 150° 8 kt METAR EHKD 310555Z AUTO 15008KT 120V180 9999 -DZ SCT004 BKN005 BKN015CB 10/09 Q0993 REDZ YLO TEMPO FEW004 SCT007 BKN015 SCT015CB
07:48
M
10 °C 10 km+ 1,500 ft 150° 150° 9 kt SPECI EHKD 310548Z AUTO 15009KT 120V180 9999 DZ FEW004 SCT010 BKN015CB 10/09 Q0993 GRN TEMPO FEW006 BKN010 SCT015CB
07:44
M
10 °C 10 km+ 1,700 ft 160° 160° 10 kt METAR EHKD 310544Z AUTO 16010KT 130V200 9999 +DZ FEW005 SCT013 FEW015CB BKN017 10/09 Q0993 GRN TEMPO 4500 SHRA FEW006 BKN010 SCT015CB
07:40
M
10 °C 6 km 2,500 ft 160° 160° 10 kt METAR EHKD 310540Z AUTO 16010KT 140V200 6000 +DZ FEW004 FEW015CB SCT022 BKN025 10/09 Q0994 WHT TEMPO 4500 SHRA FEW006 BKN010 SCT015CB
07:31
M
10 °C 5 km 2,800 ft 160° 160° 11 kt METAR EHKD 310531Z AUTO 16011KT 5000 +DZ FEW004 SCT012 SCT015CB BKN028 10/09 Q0994 GRN TEMPO 4500 SHRA FEW006 BKN010 SCT015CB
07:28
I
10 °C 7 km 800 ft 160° 160° 10 kt METAR EHKD 310528Z AUTO 16010KT 130V190 7000 DZ FEW006 SCT007 BKN008 BKN015CB 10/09 Q0994 GRN TEMPO FEW006 BKN010 SCT015CB
07:25
M
10 °C 9 km 1,100 ft 160° 160° 8 kt METAR EHKD 310525Z AUTO 16008KT 130V190 9000 DZ FEW006 SCT009 BKN011 BKN015CB 10/09 Q0994 GRN TEMPO FEW006 BKN010 SCT015CB
07:18
M
10 °C 9 km 1,500 ft 160° 160° 8 kt METAR EHKD 310518Z AUTO 16008KT 120V190 9000 DZ FEW009 SCT010 BKN015CB 10/09 Q0994 GRN TEMPO FEW009 SCT015CB
06:55
V
10 °C 10 km+ 4,300 ft 150° 150° 8 kt METAR EHKD 310455Z AUTO 15008KT 120V180 9999 DZ SCT015CB SCT028 BKN043 10/09 Q0994 WHT TEMPO FEW009 SCT015CB
06:33
M
10 °C 9 km 2,700 ft 150° 150° 7 kt METAR EHKD 310433Z AUTO 15007KT 130V190 9000 -RA SCT015CB SCT021 BKN027 10/09 Q0995 WHT TEMPO FEW009 SCT015CB
06:25
V
10 °C 10 km+ 3,300 ft 150° 150° 6 kt METAR EHKD 310425Z AUTO 15006KT 120V180 9999 -DZ FEW015CB BKN033 OVC037 10/09 Q0995 REDZ BLU TEMPO FEW009 SCT015CB
06:16
V
10 °C 10 km+ 3,300 ft 150° 150° 6 kt METAR EHKD 310416Z AUTO 15006KT 120V180 9999 -DZ FEW015CB BKN033 BKN037 OVC054 10/09 Q0995 BLU TEMPO FEW009 SCT015CB
05:55
V
10 °C 10 km+ 4,700 ft 180° 180° 8 kt METAR EHKD 310355Z AUTO 18008KT 9999 DZ FEW015CB BKN047 OVC052 10/09 Q0996 BLU
05:39
V
10 °C 10 km+ 5,600 ft 190° 190° 7 kt METAR EHKD 310339Z AUTO 19007KT 9999 FEW015CB SCT042 BKN056 10/09 Q0996 BLU
05:27
M
9 °C 10 km+ 3,000 ft 190° 190° 9 kt METAR EHKD 310327Z AUTO 19009KT 160V220 9999 DZRA FEW014 SCT015CB BKN030 09/09 Q0997 WHT
05:25
M
9 °C 10 km+ 1,500 ft 190° 190° 9 kt METAR EHKD 310325Z AUTO 19009KT 9999 -RA FEW014 BKN015CB BKN030 09/09 Q0997 RERA REDZ WHT
05:17
M
9 °C 10 km+ 1,500 ft 190° 190° 10 kt METAR EHKD 310317Z AUTO 19010KT 9999 -RADZ BKN015CB BKN039 BKN043 09/09 Q0997 WHT
05:09
M
9 °C 10 km+ 1,500 ft 190° 190° 13 kt METAR EHKD 310309Z AUTO 19013KT 9999 -RA BKN015CB BKN048 BKN053 09/09 Q0997 WHT
05:05
M
10 °C 10 km+ 1,500 ft 200° 200° 14 kt METAR EHKD 310305Z AUTO 20014KT 9999 -RA BKN015CB BKN051 10/09 Q0997 WHT
04:57
M
10 °C 7 km 1,500 ft 200° 200° 14 kt METAR EHKD 310257Z AUTO 20014KT 170V230 7000 -SHRA FEW005 BKN015CB BKN051 10/09 Q0997 WHT
04:55
M
10 °C 8 km 1,500 ft 190° 190° 14 kt METAR EHKD 310255Z AUTO 19014KT 170V230 8000 -RADZ FEW008 BKN015CB BKN051 10/09 Q0997 WHT
04:39
V
10 °C 10 km+ 5,200 ft 190° 190° 12 kt METAR EHKD 310239Z AUTO 19012KT 9999 +DZRA SCT015CB SCT046 BKN052 10/09 Q0998 WHT
04:32
V
10 °C 10 km+ 5,900 ft 200° 200° 12 kt METAR EHKD 310232Z AUTO 20012KT 170V230 9999 DZRA FEW015CB SCT036 BKN059 10/09 Q0998 BLU
04:28
M
10 °C 10 km+ 2,800 ft 190° 190° 12 kt SPECI EHKD 310228Z AUTO 19012KT 160V230 9999 -RA FEW012 FEW015CB SCT016 BKN028 10/09 Q0998 WHT
04:25
M
10 °C 10 km+ 1,500 ft 190° 190° 12 kt METAR EHKD 310225Z AUTO 19012KT 9999 -RA SCT012 BKN015CB OVC027 10/09 Q0998 RERA REDZ GRN
04:18
M
10 °C 10 km+ 2,700 ft 190° 190° 13 kt METAR EHKD 310218Z AUTO 19013KT 9999 +DZRA FEW013 FEW015CB SCT016 BKN027 10/09 Q0998 WHT
03:55
V
10 °C 10 km+ 3,300 ft 200° 200° 12 kt METAR EHKD 310155Z AUTO 20012KT 9999 FEW021 BKN033 BKN062 10/08 Q0998 BLU
03:25
V
10 °C 10 km+ 6,100 ft 200° 200° 14 kt METAR EHKD 310125Z AUTO 20014KT 9999 FEW048 BKN061 OVC110 10/08 Q0999 BLU
02:55
V
10 °C 10 km+ 20,000 ft 210° 210° 15 kt METAR EHKD 310055Z AUTO 21015KT 180V240 9999 FEW070 OVC200 10/08 Q1000 BLU
02:25
V
9 °C 10 km+ 6,000 ft 210° 210° 15 kt METAR EHKD 310025Z AUTO 21015KT 9999 BKN060 BKN070 BKN300 09/08 Q1000 BLU
01:55
V
9 °C 8 km 7,100 ft 210° 210° 13 kt METAR EHKD 302355Z AUTO 21013KT 8000 BR SCT052 BKN071 BKN310 09/08 Q1001 BLU
01:25
V
9 °C 8 km 7,100 ft 220° 220° 13 kt METAR EHKD 302325Z AUTO 22013KT 180V240 8000 BR FEW045 SCT059 BKN071 09/08 Q1001 BLU
00:55
V
9 °C 8 km 6,200 ft 220° 220° 15 kt METAR EHKD 302255Z AUTO 22015KT 180V240 8000 BR SCT056 BKN062 OVC067 09/08 Q1002 BLU
00:25
V
9 °C 8 km 27,000 ft 220° 220° 14 kt METAR EHKD 302225Z AUTO 22014KT 8000 BR FEW070 OVC270 09/08 Q1002 BLU
00:10
V
9 °C 8 km 30,000 ft 220° 220° 14 kt METAR EHKD 302210Z AUTO 22014KT 8000 BR BKN300 09/08 Q1002 BLU

March 30, 2023

Time Code Weather Temp. Visibility Ceiling Wind METAR/SPECI
23:57
V
9 °C 8 km - 220° 220° 15 kt SPECI EHKD 302157Z AUTO 22015KT 180V250 8000 BR NCD 09/08 Q1002 BLU
23:55
M
9 °C 7 km - 220° 220° 14 kt METAR EHKD 302155Z AUTO 22014KT 180V240 7000 BR NCD 09/08 Q1002 WHT
23:25
M
9 °C 7 km - 220° 220° 14 kt METAR EHKD 302125Z AUTO 22014KT 190V250 7000 BR FEW009 SCT054 09/08 Q1003 WHT
22:55
M
9 °C 7 km - 210° 210° 14 kt METAR EHKD 302055Z AUTO 21014KT 190V250 7000 BR NCD 09/08 Q1003 WHT
22:25
M
9 °C 7 km - 210° 210° 14 kt METAR EHKD 302025Z AUTO 21014KT 180V240 7000 BR NCD 09/08 Q1003 WHT
22:05
M
9 °C 7 km - 210° 210° 12 kt METAR EHKD 302005Z AUTO 21012KT 180V240 7000 BR NCD 09/08 Q1003 WHT
21:57
M
9 °C 7 km - 210° 210° 13 kt METAR EHKD 301957Z AUTO 21013KT 180V240 7000 BR NCD 09/08 Q1003 WHT RMK CB INFO NOT AVBL
21:55
V
9 °C 8 km - 210° 210° 13 kt METAR EHKD 301955Z AUTO 21013KT 8000 BR NCD 09/08 Q1003 BLU
21:44
M
9 °C 7 km - 220° 220° 13 kt METAR EHKD 301944Z AUTO 22013KT 7000 BR NCD 09/08 Q1003 WHT
21:36
V
9 °C 8 km - 220° 220° 13 kt METAR EHKD 301936Z AUTO 22013KT 190V250 8000 BR NCD 09/08 Q1003 BLU
21:25
V
9 °C 8 km 23,000 ft 220° 220° 14 kt METAR EHKD 301925Z AUTO 22014KT 190V250 8000 BR BKN230 09/08 Q1003 BLU
21:14
V
9 °C 8 km 22,000 ft 220° 220° 14 kt METAR EHKD 301914Z AUTO 22014KT 190V250 8000 BR OVC220 09/08 Q1003 BLU NOSIG
21:05
V
9 °C 8 km - 220° 220° 15 kt METAR EHKD 301905Z AUTO 22015KT 190V250 8000 BR FEW051 SCT220 09/08 Q1003 BLU NOSIG
21:01
M
9 °C 7 km - 220° 220° 16 kt METAR EHKD 301901Z AUTO 22016KT 190V250 7000 BR FEW240 09/08 Q1003 WHT NOSIG
20:55
V
9 °C 8 km 7,300 ft 220° 220° 16 kt METAR EHKD 301855Z AUTO 22016KT 190V250 8000 BR SCT067 BKN073 BKN160 09/08 Q1003 BLU NOSIG
20:25
V
10 °C 8 km 6,600 ft 220° 220° 17 kt METAR EHKD 301825Z AUTO 22017KT 8000 BR SCT045 SCT055 BKN066 10/08 Q1003 BLU NOSIG
19:55
V
10 °C 8 km 17,000 ft 230° 230° 18 kt METAR EHKD 301755Z AUTO 23018KT 200V260 8000 BR FEW053 BKN170 10/08 Q1003 BLU NOSIG
19:25
V
10 °C 8 km 7,200 ft 230° 230° 17 kt METAR EHKD 301725Z AUTO 23017KT 200V260 8000 BR BKN072 10/08 Q1003 BLU NOSIG
19:16
V
10 °C 8 km 7,000 ft 230° 230° 17 kt METAR EHKD 301716Z AUTO 23017KT 200V260 8000 BR BKN070 10/08 Q1003 BLU NOSIG
18:55
V
10 °C 8 km 6,500 ft 230° 230° 19 kt METAR EHKD 301655Z AUTO 23019KT 200V260 8000 BR BKN065 BKN071 10/08 Q1003 BLU TEMPO 23022G35KT SCT025CB
18:25
V
11 °C 8 km - 230° 230° 19 kt METAR EHKD 301625Z AUTO 23019KT 190V260 8000 BR NCD 11/09 Q1003 BLU TEMPO 23022G35KT SCT025CB
18:06
V
11 °C 8 km - 220° 220° 21 kt METAR EHKD 301606Z AUTO 22021KT 8000 BR FEW062 SCT071 11/09 Q1003 BLU TEMPO 23022G35KT SCT025CB
17:55
V
10 °C 8 km 6,900 ft 230° 230° 19 kt METAR EHKD 301555Z AUTO 23019KT 8000 BR FEW053 BKN069 10/09 Q1003 BLU TEMPO 23022G35KT SCT025CB
17:25
M
11 °C 7 km 5,900 ft 230° 230° 19 kt METAR EHKD 301525Z AUTO 23019KT 200V260 7000 BR SCT053 OVC059 11/09 Q1003 WHT TEMPO 23022G35KT SCT025CB
16:55
V
11 °C 8 km 5,600 ft 230° 230° 20 kt METAR EHKD 301455Z AUTO 23020KT 200V260 8000 BR BKN056 OVC062 11/09 Q1003 BLU TEMPO 23022G35KT SCT025CB
16:25
V
11 °C 9 km 6,000 ft 230° 230° 20 kt METAR EHKD 301425Z AUTO 23020KT 190V260 9000 BR SCT053 OVC060 11/09 Q1003 BLU TEMPO 23022G35KT SCT025CB
15:55
V
12 °C 8 km 7,900 ft 230° 230° 22 kt METAR EHKD 301355Z AUTO 23022KT 200V260 8000 BR FEW064 BKN079 OVC084 12/09 Q1003 BLU TEMPO 23022G35KT SCT025CB
15:36
M
12 °C 7 km 6,200 ft 230° 230° 23 kt METAR EHKD 301336Z AUTO 23023KT 190V250 7000 BR BKN062 BKN080 OVC096 12/09 Q1003 WHT TEMPO 23022G35KT
15:25
V
11 °C 9 km 9,100 ft 220° 220° 21 kt METAR EHKD 301325Z AUTO 22021KT 190V250 9000 BR FEW054 SCT070 BKN091 11/08 Q1003 BLU TEMPO 23022G35KT
15:07
V
11 °C 9 km 7,800 ft 230° 230° 21 kt SPECI EHKD 301307Z AUTO 23021KT 9000 BR SCT070 BKN078 BKN093 11/08 Q1003 BLU TEMPO 23022G35KT
14:55
V
12 °C 10 km+ - 230° 230° 23 - 33 kt METAR EHKD 301255Z AUTO 23023G33KT 9999 NCD 12/09 Q1004 BLU TEMPO 23022G35KT
14:44
V
12 °C 9 km - 230° 230° 22 kt METAR EHKD 301244Z AUTO 23022KT 9000 BR NCD 12/09 Q1004 BLU TEMPO 23022G35KT
14:40
M
12 °C 7 km - 230° 230° 22 kt METAR EHKD 301240Z AUTO 23022KT 7000 BR NCD 12/09 Q1003 WHT TEMPO 23022G35KT
14:32
V
12 °C 9 km - 230° 230° 23 kt METAR EHKD 301232Z AUTO 23023KT 190V250 9000 BR NCD 12/09 Q1004 BLU TEMPO 23022G35KT
14:25
V
12 °C 9 km - 230° 230° 21 kt METAR EHKD 301225Z AUTO 23021KT 9000 BR NCD 12/09 Q1003 BLU TEMPO 23022G35KT
13:55
V
12 °C 9 km - 230° 230° 22 kt METAR EHKD 301155Z AUTO 23022KT 200V260 9000 BR NCD 12/09 Q1003 BLU TEMPO 23022G35KT
13:25
V
12 °C 9 km - 230° 230° 22 kt METAR EHKD 301125Z AUTO 23022KT 200V270 9000 BR NCD 12/09 Q1003 BLU TEMPO 23022G35KT
12:55
V
11 °C 9 km - 230° 230° 21 kt METAR EHKD 301055Z AUTO 23021KT 9000 BR SCT059 11/08 Q1003 BLU TEMPO 23022G35KT
12:25
V
11 °C 10 km+ 5,100 ft 230° 230° 21 kt METAR EHKD 301025Z AUTO 23021KT 200V260 9999 BKN051 OVC057 11/09 Q1003 BLU TEMPO 23022G35KT
11:55
V
11 °C 10 km+ 4,300 ft 230° 230° 22 - 32 kt METAR EHKD 300955Z AUTO 23022G32KT 200V260 9999 SCT038 OVC043 11/09 Q1003 BLU TEMPO 23022G35KT
11:25
V
10 °C 9 km 3,600 ft 230° 230° 20 - 30 kt METAR EHKD 300925Z AUTO 23020G30KT 9000 BR SCT032 OVC036 10/08 Q1002 BLU TEMPO 23022G35KT
10:55
V
10 °C 10 km+ 3,200 ft 230° 230° 19 kt METAR EHKD 300855Z AUTO 23019KT 190V250 9999 BKN032 OVC036 10/08 Q1002 BLU TEMPO 23022G35KT
10:25
V
10 °C 10 km+ 3,200 ft 230° 230° 19 kt METAR EHKD 300825Z AUTO 23019KT 9999 OVC032 10/08 Q1002 BLU TEMPO 23022G35KT
09:55
V
11 °C 10 km+ 3,300 ft 220° 220° 20 kt METAR EHKD 300755Z AUTO 22020KT 190V260 9999 BKN033 OVC038 11/09 Q1001 BLU TEMPO 23022G35KT
09:29
V
10 °C 10 km+ 3,700 ft 220° 220° 19 kt METAR EHKD 300729Z AUTO 22019KT 180V250 9999 OVC037 10/08 Q1001 BLU TEMPO 23022G35KT
09:25
V
10 °C 10 km+ 3,100 ft 220° 220° 19 kt METAR EHKD 300725Z AUTO 22019KT 200V260 9999 BKN031 OVC036 10/08 Q1001 BLU TEMPO 23022G35KT SCT010 SCT018CB BKN030
09:00
M
10 °C 10 km+ 3,000 ft 220° 220° 20 kt METAR EHKD 300700Z AUTO 22020KT 190V250 9999 SCT025 OVC030 10/08 Q1001 BLU TEMPO 23022G35KT SCT010 SCT018CB BKN030
08:55
M
10 °C 10 km+ 2,400 ft 220° 220° 19 kt METAR EHKD 300655Z AUTO 22019KT 190V250 9999 BKN024 OVC028 10/08 Q1001 WHT TEMPO 23022G35KT SCT010 SCT018CB BKN030
08:44
M
10 °C 10 km+ 2,400 ft 230° 230° 19 kt METAR EHKD 300644Z AUTO 23019KT 9999 BKN024 BKN028 OVC033 10/08 Q1001 WHT TEMPO 23022G35KT SCT010 SCT018CB BKN030
08:40
V
10 °C 10 km+ 3,900 ft 220° 220° 18 kt METAR EHKD 300640Z AUTO 22018KT 9999 SCT024 SCT028 OVC039 10/08 Q1001 WHT TEMPO 23022G35KT SCT010 SCT018CB BKN030
08:25
V
10 °C 10 km+ 4,500 ft 220° 220° 19 kt METAR EHKD 300625Z AUTO 22019KT 190V250 9999 FEW031 OVC045 10/09 Q1001 BLU TEMPO 23022G35KT SCT010 SCT018CB BKN030
07:55
V
10 °C 10 km+ 3,100 ft 220° 220° 18 kt METAR EHKD 300555Z AUTO 22018KT 190V250 9999 SCT027 BKN031 BKN041 10/09 Q1001 BLU TEMPO 23022G35KT SCT010 SCT018CB BKN030
07:42
M
10 °C 10 km+ 2,200 ft 210° 210° 20 kt METAR EHKD 300542Z AUTO 21020KT 180V240 9999 BKN022 OVC028 10/09 Q1001 WHT TEMPO 23022G35KT SCT010 SCT018CB BKN030
07:34
V
10 °C 10 km+ 3,600 ft 210° 210° 20 kt METAR EHKD 300534Z AUTO 21020KT 180V240 9999 FEW012 SCT025 BKN036 10/09 Q1001 BLU TEMPO 23022G35KT SCT010 SCT018CB BKN030
07:29
V
10 °C 10 km+ 4,400 ft 210° 210° 20 kt METAR EHKD 300529Z AUTO 21020KT 9999 FEW012 SCT024 OVC044 10/09 Q1001 WHT TEMPO 23022G35KT SCT010 SCT018CB BKN030
07:25
V
10 °C 10 km+ 4,400 ft 210° 210° 19 kt METAR EHKD 300525Z AUTO 21019KT 9999 SCT025 OVC044 10/09 Q1001 BLU TEMPO 23022G35KT SCT010 SCT018CB BKN030
07:05
V
10 °C 10 km+ - 210° 210° 18 kt METAR EHKD 300505Z AUTO 21018KT 180V250 9999 FEW022 10/08 Q1000 BLU TEMPO 23022G35KT SCT010 SCT018CB BKN030
06:57
V
10 °C 10 km+ - 210° 210° 18 kt METAR EHKD 300457Z AUTO 21018KT 180V240 9999 SCT022 10/08 Q1000 WHT TEMPO 23022G35KT SCT010 SCT018CB BKN030
06:55
V
10 °C 10 km+ - 210° 210° 18 kt METAR EHKD 300455Z AUTO 21018KT 9999 FEW025 10/09 Q1000 BLU TEMPO 23022G35KT SCT010 SCT018CB BKN030
06:25
V
10 °C 10 km+ - 210° 210° 20 kt METAR EHKD 300425Z AUTO 21020KT 180V240 9999 NCD 10/09 Q1000 BLU TEMPO 23022G35KT SCT010 SCT018CB BKN030
06:17
V
10 °C 10 km+ - 210° 210° 20 kt METAR EHKD 300417Z AUTO 21020KT 180V240 9999 FEW082 10/09 Q1000 BLU TEMPO 23022G35KT SCT010 SCT018CB BKN030
05:55
V
10 °C 10 km+ 4,200 ft 220° 220° 18 kt METAR EHKD 300355Z AUTO 22018KT 190V250 9999 BKN042 BKN050 BKN079 10/09 Q1001 BLU
05:25
V
10 °C 10 km+ - 220° 220° 16 kt METAR EHKD 300325Z AUTO 22016KT 180V250 9999 FEW067 SCT092 10/09 Q1001 BLU
04:55
V
10 °C 10 km+ 8,000 ft 220° 220° 14 kt METAR EHKD 300255Z AUTO 22014KT 180V250 9999 SCT062 SCT070 BKN080 10/09 Q1001 BLU
04:25
V
10 °C 10 km+ 19,000 ft 220° 220° 15 kt METAR EHKD 300225Z AUTO 22015KT 9999 FEW062 SCT078 OVC190 10/09 Q1001 BLU
03:57
V
10 °C 10 km+ 21,000 ft 220° 220° 16 kt METAR EHKD 300157Z AUTO 22016KT 190V250 9999 FEW022 OVC210 10/09 Q1001 BLU
03:55
V
10 °C 10 km+ 21,000 ft 220° 220° 15 kt METAR EHKD 300155Z AUTO 22015KT 190V250 9999 SCT019 OVC210 10/08 Q1002 WHT
03:42
V
11 °C 10 km+ 20,000 ft 220° 220° 17 kt METAR EHKD 300142Z AUTO 22017KT 190V250 9999 FEW016 SCT021 OVC200 11/08 Q1002 WHT
03:25
V
11 °C 10 km+ 3,200 ft 220° 220° 18 kt METAR EHKD 300125Z AUTO 22018KT 9999 BKN032 BKN038 OVC044 11/09 Q1002 BLU
03:02
V
10 °C 10 km+ 11,000 ft 220° 220° 13 kt METAR EHKD 300102Z AUTO 22013KT 180V250 9999 FEW023 OVC110 10/08 Q1002 BLU
02:58
V
10 °C 10 km+ 11,000 ft 220° 220° 14 kt SPECI EHKD 300058Z AUTO 22014KT 190V250 9999 FEW015CB SCT023 OVC110 10/09 Q1002 WHT
02:55
M
10 °C 10 km+ 2,500 ft 220° 220° 15 kt METAR EHKD 300055Z AUTO 22015KT 9999 -RA FEW015CB BKN025 OVC066 10/08 Q1002 RERA REDZ BLU
02:25
V
12 °C 10 km+ 7,000 ft 210° 210° 17 kt METAR EHKD 300025Z AUTO 21017KT 9999 FEW034 SCT062 BKN070 12/09 Q1003 BLU
01:55
V
13 °C 10 km+ 6,900 ft 210° 210° 16 kt METAR EHKD 292355Z AUTO 21016KT 180V240 9999 SCT056 BKN069 OVC075 13/09 Q1003 BLU
01:25
V
13 °C 10 km+ 6,600 ft 210° 210° 11 kt METAR EHKD 292325Z AUTO 21011KT 9999 SCT054 BKN066 OVC094 13/10 Q1003 BLU
00:55
V
12 °C 10 km+ 5,800 ft 180° 180° 9 kt METAR EHKD 292255Z AUTO 18009KT 150V210 9999 FEW015CB OVC058 12/10 Q1003 BLU
00:25
V
12 °C 10 km+ 5,600 ft 170° 170° 10 kt METAR EHKD 292225Z AUTO 17010KT 9999 OVC056 12/10 Q1004 BLU

March 29, 2023

Time Code Weather Temp. Visibility Ceiling Wind METAR/SPECI
23:55
V
12 °C 10 km+ 5,200 ft 160° 160° 9 kt METAR EHKD 292155Z AUTO 16009KT 9999 OVC052 12/10 Q1004 BLU
23:25
V
12 °C 10 km+ 5,100 ft 170° 170° 10 kt METAR EHKD 292125Z AUTO 17010KT 9999 BKN051 OVC058 12/10 Q1004 BLU
22:55
V
12 °C 10 km+ 6,200 ft 170° 170° 11 kt METAR EHKD 292055Z AUTO 17011KT 150V210 9999 BKN062 OVC067 12/10 Q1005 BLU
22:25
V
12 °C 10 km+ 9,200 ft 160° 160° 10 kt METAR EHKD 292025Z AUTO 16010KT 9999 SCT086 BKN092 OVC097 12/10 Q1005 BLU
21:55
V
12 °C 10 km+ 3,900 ft 160° 160° 11 kt METAR EHKD 291955Z AUTO 16011KT 130V190 9999 OVC039 12/10 Q1006 BLU NOSIG
21:25
V
11 °C 10 km+ 4,200 ft 160° 160° 10 kt METAR EHKD 291925Z AUTO 16010KT 9999 FEW033 BKN042 OVC048 11/09 Q1006 BLU NOSIG
20:58
V
11 °C 10 km+ 3,300 ft 150° 150° 11 kt SPECI EHKD 291858Z AUTO 15011KT 120V180 9999 FEW019 SCT027 BKN033 11/09 Q1007 BLU NOSIG
20:55
M
11 °C 10 km+ 1,800 ft 150° 150° 10 kt METAR EHKD 291855Z AUTO 15010KT 120V180 9999 BKN018 BKN029 OVC033 11/09 Q1007 WHT NOSIG
20:32
M
11 °C 10 km+ 2,300 ft 160° 160° 12 kt METAR EHKD 291832Z AUTO 16012KT 9999 FEW020 BKN023 OVC180 11/09 Q1007 WHT NOSIG
20:28
V
11 °C 10 km+ 17,000 ft 160° 160° 12 kt METAR EHKD 291828Z AUTO 16012KT 9999 SCT023 OVC170 11/09 Q1007 WHT NOSIG
20:25
V
11 °C 10 km+ 17,000 ft 160° 160° 12 kt METAR EHKD 291825Z AUTO 16012KT 9999 OVC170 11/09 Q1007 BLU NOSIG
20:17
V
11 °C 10 km+ 16,000 ft 150° 150° 11 kt METAR EHKD 291817Z AUTO 15011KT 9999 FEW020 OVC160 11/09 Q1007 BLU NOSIG
20:07
M
11 °C 10 km+ 1,900 ft 160° 160° 12 kt METAR EHKD 291807Z AUTO 16012KT 9999 BKN019 BKN023 OVC160 11/09 Q1007 WHT NOSIG
20:03
V
11 °C 10 km+ 16,000 ft 150° 150° 11 kt METAR EHKD 291803Z AUTO 15011KT 9999 SCT020 OVC160 11/09 Q1007 WHT NOSIG
19:59
V
11 °C 10 km+ 16,000 ft 150° 150° 11 kt METAR EHKD 291759Z AUTO 15011KT 120V180 9999 FEW020 SCT025 OVC160 11/09 Q1007 BLU NOSIG
19:55
M
11 °C 10 km+ 2,200 ft 150° 150° 10 kt METAR EHKD 291755Z AUTO 15010KT 120V180 9999 SCT018 BKN022 OVC160 11/09 Q1007 WHT NOSIG
19:25
M
11 °C 10 km+ 1,500 ft 150° 150° 8 kt METAR EHKD 291725Z AUTO 15008KT 9999 OVC015 11/10 Q1008 WHT NOSIG
19:07
M
11 °C 8 km 1,800 ft 150° 150° 9 kt METAR EHKD 291707Z AUTO 15009KT 120V190 8000 BR OVC018 11/10 Q1008 WHT NOSIG
18:55
M
11 °C 7 km 2,000 ft 160° 160° 8 kt METAR EHKD 291655Z AUTO 16008KT 130V190 7000 -RADZ OVC020 11/10 Q1008 RERA REDZ WHT NOSIG
18:48
I
11 °C 4.4 km 1,900 ft 160° 160° 8 kt SPECI EHKD 291648Z AUTO 16008KT 4400 -RA BKN019 OVC023 11/10 Q1008 GRN NOSIG
18:42
M
11 °C 5 km 2,300 ft 160° 160° 9 kt METAR EHKD 291642Z AUTO 16009KT 130V190 5000 BR SCT019 BKN023 OVC027 11/10 Q1009 WHT NOSIG
18:28
M
11 °C 5 km 3,000 ft 170° 170° 7 kt SPECI EHKD 291628Z AUTO 17007KT 5000 DZ FEW017 SCT027 BKN030 11/10 Q1009 WHT NOSIG
18:25
I
11 °C 4.5 km 3,400 ft 170° 170° 8 kt METAR EHKD 291625Z AUTO 17008KT 4500 -RADZ FEW030 OVC034 11/10 Q1009 GRN NOSIG
18:19
M
11 °C 5 km 3,400 ft 170° 170° 7 kt METAR EHKD 291619Z AUTO 17007KT 5000 -RA FEW030 OVC034 11/10 Q1009 WHT NOSIG
18:07
V
11 °C 10 km+ 3,200 ft 170° 170° 7 kt METAR EHKD 291607Z AUTO 17007KT 9999 FEW015CB OVC032 11/10 Q1009 BLU NOSIG
18:03
M
11 °C 7 km 3,200 ft 180° 180° 8 kt METAR EHKD 291603Z AUTO 18008KT 7000 BR FEW015CB BKN032 OVC037 11/10 Q1009 WHT NOSIG
17:55
V
11 °C 10 km+ 4,400 ft 180° 180° 7 kt METAR EHKD 291555Z AUTO 18007KT 9999 FEW015CB SCT038 BKN044 OVC049 11/10 Q1009 BLU NOSIG
17:44
V
11 °C 10 km+ 5,300 ft 180° 180° 8 kt METAR EHKD 291544Z AUTO 18008KT 9999 FEW015CB SCT046 OVC053 11/10 Q1009 BLU NOSIG
17:39
V
10 °C 8 km 6,100 ft 180° 180° 8 kt METAR EHKD 291539Z AUTO 18008KT 8000 -RA FEW015CB SCT053 OVC061 10/09 Q1009 BLU TEMPO 2000 BKN002 OVC003
17:25
M
10 °C 6 km 6,400 ft 200° 200° 11 kt METAR EHKD 291525Z AUTO 20011KT 170V230 6000 -SHRA SCT015CB SCT051 OVC064 10/09 Q1010 REDZ WHT TEMPO 2000 BKN002 OVC003
17:05
M
10 °C 6 km 6,700 ft 200° 200° 12 kt METAR EHKD 291505Z AUTO 20012KT 6000 -RA FEW006 FEW015CB BKN067 BKN073 10/09 Q1010 WHT TEMPO 2000 BKN002 OVC003
17:04
V
10 °C 8 km 6,900 ft 200° 200° 14 kt METAR EHKD 291504Z AUTO 20014KT 8000 -RA FEW006 FEW015CB SCT064 BKN069 10/09 Q1010 BLU TEMPO 2000 BKN002 OVC003 BECMG 7000 NSW BKN010 OVC012
17:00
M
10 °C 6 km 6,700 ft 200° 200° 14 kt METAR EHKD 291500Z AUTO 20014KT 6000 -RADZ FEW006 FEW015CB SCT047 BKN067 10/09 Q1010 WHT TEMPO 2000 BKN002 OVC003 BECMG 7000 NSW BKN010 OVC012
16:55
M
10 °C 6 km 6,300 ft 200° 200° 14 kt METAR EHKD 291455Z AUTO 20014KT 6000 DZ FEW006 SCT008 FEW015CB BKN063 10/09 Q1010 GRN TEMPO 2000 BKN002 OVC003 BECMG 7000 NSW BKN010 OVC012
16:37
M
10 °C 7 km 6,600 ft 210° 210° 16 kt METAR EHKD 291437Z AUTO 21016KT 170V250 7000 -RADZ FEW006 FEW015CB BKN066 10/09 Q1011 WHT TEMPO 2000 BKN002 OVC003 BECMG 7000 NSW BKN010 OVC012 RMK LVP ALFA
16:25
V
10 °C 10 km+ 8,900 ft 210° 210° 16 kt METAR EHKD 291425Z AUTO 21016KT 9999 FEW006 SCT076 BKN089 10/09 Q1010 BLU TEMPO 2000 BKN002 OVC003 BECMG 7000 NSW BKN010 OVC012 RMK LVP ALFA
16:18
V
10 °C 10 km+ 8,100 ft 210° 210° 15 kt METAR EHKD 291418Z AUTO 21015KT 9999 FEW005 SCT008 BKN081 10/09 Q1010 GRN TEMPO 2000 BKN002 OVC003 BECMG 7000 NSW BKN010 OVC012 RMK LVP ALFA
15:55
I
10 °C 10 km+ 600 ft 210° 210° 17 kt METAR EHKD 291355Z AUTO 21017KT 9999 FEW004 SCT005 BKN006 10/08 Q1011 YLO TEMPO 2000 BKN002 OVC003 BECMG 7000 NSW BKN010 OVC012
15:25
L
10 °C 8 km 300 ft 210° 210° 13 kt METAR EHKD 291325Z AUTO 21013KT 8000 BR OVC003 10/09 Q1011 YLO TEMPO 2000 BKN002 OVC003 RMK LVP ALFA
15:16
L
10 °C 6 km 200 ft 210° 210° 15 kt METAR EHKD 291316Z AUTO 21015KT 180V240 6000 BR OVC002 10/09 Q1011 AMB TEMPO 2000 BKN002 OVC003 RMK LVP ALFA
14:55
L
9 °C 5 km 200 ft 210° 210° 18 kt METAR EHKD 291255Z AUTO 21018KT 170V230 5000 BR OVC002 09/08 Q1012 AMB TEMPO 3000 BKN002 OVC003
14:43
L
9 °C 4.4 km 200 ft 210° 210° 16 kt METAR EHKD 291243Z AUTO 21016KT 4400 BR OVC002 09/09 Q1012 AMB TEMPO 3000 BKN002 OVC003 RMK LVP ALFA
14:39
L
9 °C 6 km 300 ft 210° 210° 17 kt METAR EHKD 291239Z AUTO 21017KT 6000 BR OVC003 09/09 Q1012 YLO TEMPO 3000 BKN002 OVC003 RMK LVP ALFA
14:25
L
10 °C 8 km 300 ft 210° 210° 15 kt METAR EHKD 291225Z AUTO 21015KT 8000 BR OVC003 10/09 Q1012 YLO TEMPO 3000 BKN002 OVC003 RMK LVP ALFA
14:14
L
10 °C 7 km 300 ft 200° 200° 14 kt METAR EHKD 291214Z AUTO 20014KT 170V230 7000 BR OVC003 10/09 Q1012 YLO TEMPO 3000 BKN002 OVC003 RMK LVP ALFA
14:10
L
10 °C 6 km 200 ft 200° 200° 14 kt METAR EHKD 291210Z AUTO 20014KT 170V240 6000 BR OVC002 10/09 Q1012 AMB TEMPO 3000 BKN002 OVC003 RMK LVP ALFA
13:55
L
9 °C 4.7 km 200 ft 210° 210° 15 kt METAR EHKD 291155Z AUTO 21015KT 4700 BR OVC002 09/08 Q1012 AMB TEMPO 3000 BKN002 OVC003
13:25
L
10 °C 7 km 300 ft 210° 210° 13 kt METAR EHKD 291125Z AUTO 21013KT 190V250 7000 BR OVC003 10/09 Q1012 YLO TEMPO 3000 BKN002 OVC003 RMK LVP ALFA
13:08
L
10 °C 5 km 300 ft 210° 210° 12 kt METAR EHKD 291108Z AUTO 21012KT 5000 BR OVC003 10/09 Q1012 YLO TEMPO 3000 BKN002 OVC003 RMK LVP ALFA
12:55
L
9 °C 5 km 300 ft 220° 220° 13 kt METAR EHKD 291055Z AUTO 22013KT 180V250 5000 BR OVC003 09/08 Q1012 YLO TEMPO 3000 BKN002 OVC003 RMK LVP ALFA
12:37
L
10 °C 6 km 300 ft 210° 210° 12 kt METAR EHKD 291037Z AUTO 21012KT 180V250 6000 BR OVC003 10/09 Q1012 YLO TEMPO 3000 BKN002 OVC003 RMK LVP ALFA
12:25
L
10 °C 4.7 km 300 ft 220° 220° 12 kt METAR EHKD 291025Z AUTO 22012KT 170V250 4700 BR OVC003 10/09 Q1012 YLO TEMPO 3000 BKN002 OVC003 RMK LVP ALFA
12:07
L
10 °C 6 km 200 ft 220° 220° 14 kt METAR EHKD 291007Z AUTO 22014KT 6000 BR BKN002 OVC003 10/09 Q1012 AMB TEMPO 3000 BKN002 OVC003
11:55
L
9 °C 5 km 200 ft 220° 220° 13 kt METAR EHKD 290955Z AUTO 22013KT 5000 BR OVC002 09/09 Q1012 AMB TEMPO 3000 BKN002 OVC003
11:32
L
9 °C 4.9 km 200 ft 220° 220° 13 kt METAR EHKD 290932Z AUTO 22013KT 190V250 4900 BR OVC002 09/08 Q1012 AMB TEMPO 3000 BKN002 OVC003
11:30
L
9 °C 4.4 km 300 ft 220° 220° 13 kt METAR EHKD 290930Z AUTO 22013KT 190V250 4400 BR OVC003 09/08 Q1012 YLO TEMPO SCT005 BKN007
11:25
L
9 °C 7 km 300 ft 220° 220° 13 kt METAR EHKD 290925Z AUTO 22013KT 190V250 7000 BR OVC003 09/08 Q1012 YLO TEMPO SCT005 BKN007
11:18
L
9 °C 7 km 400 ft 220° 220° 12 kt METAR EHKD 290918Z AUTO 22012KT 190V250 7000 BR OVC004 09/08 Q1012 YLO TEMPO SCT005 BKN007
10:55
I
9 °C 10 km+ 500 ft 220° 220° 11 kt METAR EHKD 290855Z AUTO 22011KT 180V260 9999 OVC005 09/08 Q1012 YLO TEMPO SCT005 BKN007
10:38
I
9 °C 10 km+ 500 ft 220° 220° 10 kt METAR EHKD 290838Z AUTO 22010KT 180V250 9999 BKN005 BKN006 OVC008 09/08 Q1012 YLO TEMPO SCT005 BKN007
10:34
I
9 °C 10 km+ 700 ft 220° 220° 10 kt METAR EHKD 290834Z AUTO 22010KT 180V250 9999 SCT005 BKN007 OVC008 09/08 Q1012 YLO TEMPO SCT005 BKN007
10:30
I
9 °C 10 km+ 700 ft 220° 220° 10 kt METAR EHKD 290830Z AUTO 22010KT 180V250 9999 FEW005 BKN007 OVC008 09/08 Q1012 GRN TEMPO SCT005 BKN007
10:25
I
9 °C 10 km+ 700 ft 220° 220° 10 kt METAR EHKD 290825Z AUTO 22010KT 190V250 9999 FEW006 OVC007 09/08 Q1012 GRN TEMPO SCT005 BKN007
09:55
I
9 °C 10 km+ 700 ft 210° 210° 10 kt METAR EHKD 290755Z AUTO 21010KT 190V250 9999 OVC007 09/08 Q1012 GRN TEMPO SCT005 BKN007

We and third parties follow your internet behavior on our website with cookies. If you continue, we assume you agree with our cookie policy.